createdAt,value
2023-06-14T00:00:49.602Z,17.11
2023-06-14T00:01:49.663Z,17.12
2023-06-14T00:02:49.808Z,17.14
2023-06-14T00:03:49.690Z,17.14
2023-06-14T00:04:49.643Z,17.14
2023-06-14T00:05:49.535Z,17.11
2023-06-14T00:06:49.517Z,17.11
2023-06-14T00:07:49.655Z,17.12
2023-06-14T00:08:49.490Z,17.12
2023-06-14T00:09:49.474Z,17.11
2023-06-14T00:10:49.501Z,17.11
2023-06-14T00:11:49.446Z,17.07
2023-06-14T00:12:49.443Z,17.07
2023-06-14T00:13:49.437Z,17.04
2023-06-14T00:14:50.862Z,17.03
2023-06-14T00:15:49.414Z,17.03
2023-06-14T00:16:49.482Z,17.01
2023-06-14T00:17:49.407Z,17.01
2023-06-14T00:18:49.356Z,17.03
2023-06-14T00:19:49.335Z,17.03
2023-06-14T00:20:49.442Z,17.06
2023-06-14T00:21:49.316Z,17.12
2023-06-14T00:22:49.296Z,17.16
2023-06-14T00:23:49.373Z,17.18
2023-06-14T00:24:49.281Z,17.19
2023-06-14T00:25:49.263Z,17.19
2023-06-14T00:26:49.243Z,17.18
2023-06-14T00:27:49.232Z,17.16
2023-06-14T00:28:49.236Z,17.15
2023-06-14T00:29:49.215Z,17.12
2023-06-14T00:30:49.197Z,17.14
2023-06-14T00:31:49.240Z,17.15
2023-06-14T00:32:49.275Z,17.16
2023-06-14T00:33:49.183Z,17.14
2023-06-14T00:34:49.151Z,17.16
2023-06-14T00:35:49.136Z,17.16
2023-06-14T00:36:49.147Z,17.16
2023-06-14T00:37:49.106Z,17.18
2023-06-14T00:38:49.104Z,17.18
2023-06-14T00:39:49.075Z,17.19
2023-06-14T00:40:49.080Z,17.21
2023-06-14T00:41:49.046Z,17.19
2023-06-14T00:42:49.046Z,17.19
2023-06-14T00:43:49.039Z,17.19
2023-06-14T00:44:49.012Z,17.18
2023-06-14T00:45:48.996Z,17.18
2023-06-14T00:46:49.120Z,17.16
2023-06-14T00:47:49.016Z,17.16
2023-06-14T00:48:48.971Z,17.16
2023-06-14T00:49:48.978Z,17.18
2023-06-14T00:50:48.929Z,17.19
2023-06-14T00:51:48.912Z,17.21
2023-06-14T00:52:48.912Z,17.19
2023-06-14T00:53:48.891Z,17.19
2023-06-14T00:54:48.893Z,17.18
2023-06-14T00:55:49.128Z,17.16
2023-06-14T00:56:48.842Z,17.14
2023-06-14T00:57:48.839Z,17.12
2023-06-14T00:58:48.862Z,17.11
2023-06-14T00:59:48.828Z,17.07
2023-06-14T01:00:48.815Z,17.07
2023-06-14T01:01:48.820Z,17.06
2023-06-14T01:02:48.823Z,17.04
2023-06-14T01:03:48.917Z,17.01
2023-06-14T01:04:48.754Z,17.00
2023-06-14T01:05:48.734Z,16.98
2023-06-14T01:06:48.730Z,16.97
2023-06-14T01:07:48.725Z,16.97
2023-06-14T01:08:48.746Z,16.97
2023-06-14T01:09:48.687Z,16.96
2023-06-14T01:10:48.672Z,16.96
2023-06-14T01:11:48.653Z,16.96
2023-06-14T01:12:48.643Z,16.96
2023-06-14T01:13:48.643Z,16.96
2023-06-14T01:14:48.612Z,16.97
2023-06-14T01:15:48.596Z,16.97
2023-06-14T01:16:48.860Z,16.96
2023-06-14T01:17:48.629Z,16.96
2023-06-14T01:18:48.585Z,16.94
2023-06-14T01:19:48.562Z,16.94
2023-06-14T01:20:48.528Z,16.94
2023-06-14T01:21:48.517Z,16.93
2023-06-14T01:22:48.515Z,16.91
2023-06-14T01:23:48.508Z,16.89
2023-06-14T01:24:48.479Z,16.86
2023-06-14T01:25:48.467Z,16.86
2023-06-14T01:26:48.455Z,16.85
2023-06-14T01:27:48.465Z,16.85
2023-06-14T01:28:48.433Z,16.82
2023-06-14T01:29:48.434Z,16.82
2023-06-14T01:30:48.393Z,16.81
2023-06-14T01:31:48.394Z,16.78
2023-06-14T01:32:48.413Z,16.76
2023-06-14T01:33:48.386Z,16.75
2023-06-14T01:34:48.394Z,16.75
2023-06-14T01:35:48.326Z,16.73
2023-06-14T01:36:48.323Z,16.73
2023-06-14T01:37:48.310Z,16.71
2023-06-14T01:38:48.434Z,16.70
2023-06-14T01:39:48.315Z,16.68
2023-06-14T01:40:48.277Z,16.66
2023-06-14T01:41:48.265Z,16.66
2023-06-14T01:42:48.265Z,16.66
2023-06-14T01:43:48.255Z,16.67
2023-06-14T01:44:48.225Z,16.66
2023-06-14T01:45:48.306Z,16.64
2023-06-14T01:46:48.192Z,16.64
2023-06-14T01:47:48.257Z,16.61
2023-06-14T01:48:48.164Z,16.60
2023-06-14T01:49:48.180Z,16.57
2023-06-14T01:50:48.134Z,16.56
2023-06-14T01:51:48.117Z,16.53
2023-06-14T01:52:48.111Z,16.56
2023-06-14T01:53:48.119Z,16.53
2023-06-14T01:54:48.084Z,16.53
2023-06-14T01:55:48.066Z,16.53
2023-06-14T01:56:48.070Z,16.52
2023-06-14T01:57:48.044Z,16.52
2023-06-14T01:58:48.084Z,16.49
2023-06-14T01:59:48.011Z,16.50
2023-06-14T02:00:47.994Z,16.50
2023-06-14T02:01:48.068Z,16.49
2023-06-14T02:02:48.032Z,16.49
2023-06-14T02:03:47.963Z,16.48
2023-06-14T02:04:47.965Z,16.46
2023-06-14T02:05:47.962Z,16.45
2023-06-14T02:06:47.959Z,16.45
2023-06-14T02:07:47.913Z,16.43
2023-06-14T02:08:47.911Z,16.41
2023-06-14T02:09:47.898Z,16.39
2023-06-14T02:10:47.915Z,16.38
2023-06-14T02:11:47.880Z,16.34
2023-06-14T02:12:47.860Z,16.33
2023-06-14T02:13:47.858Z,16.33
2023-06-14T02:14:47.815Z,16.30
2023-06-14T02:15:47.916Z,16.28
2023-06-14T02:16:47.789Z,16.25
2023-06-14T02:17:47.794Z,16.24
2023-06-14T02:18:47.759Z,16.24
2023-06-14T02:19:47.777Z,16.23
2023-06-14T02:20:47.742Z,16.20
2023-06-14T02:21:47.732Z,16.17
2023-06-14T02:22:47.708Z,16.14
2023-06-14T02:23:47.714Z,16.12
2023-06-14T02:24:47.696Z,16.11
2023-06-14T02:25:47.803Z,16.09
2023-06-14T02:26:47.684Z,16.08
2023-06-14T02:27:47.657Z,16.08
2023-06-14T02:28:47.646Z,16.07
2023-06-14T02:29:47.623Z,16.07
2023-06-14T02:30:47.616Z,16.07
2023-06-14T02:31:48.053Z,16.07
2023-06-14T02:32:47.644Z,16.05
2023-06-14T02:33:47.577Z,16.02
2023-06-14T02:34:47.553Z,16.04
2023-06-14T02:35:47.577Z,16.04
2023-06-14T02:36:47.530Z,16.04
2023-06-14T02:37:47.516Z,16.02
2023-06-14T02:38:47.537Z,16.01
2023-06-14T02:39:47.494Z,16.01
2023-06-14T02:40:47.474Z,16.01
2023-06-14T02:41:47.463Z,16.00
2023-06-14T02:42:47.458Z,16.00
2023-06-14T02:43:47.440Z,16.01
2023-06-14T02:44:47.443Z,15.97
2023-06-14T02:45:47.405Z,15.96
2023-06-14T02:46:47.398Z,15.93
2023-06-14T02:47:47.686Z,15.90
2023-06-14T02:48:47.435Z,15.90
2023-06-14T02:49:47.358Z,15.89
2023-06-14T02:50:47.372Z,15.89
2023-06-14T02:51:47.326Z,15.86
2023-06-14T02:52:47.322Z,15.84
2023-06-14T02:53:47.313Z,15.84
2023-06-14T02:54:47.300Z,15.83
2023-06-14T02:55:47.281Z,15.80
2023-06-14T02:56:47.286Z,15.82
2023-06-14T02:57:47.250Z,15.78
2023-06-14T02:58:47.323Z,15.76
2023-06-14T02:59:47.229Z,15.75
2023-06-14T03:00:47.295Z,15.74
2023-06-14T03:01:47.207Z,15.71
2023-06-14T03:02:47.250Z,15.71
2023-06-14T03:03:47.398Z,15.68
2023-06-14T03:04:47.161Z,15.65
2023-06-14T03:05:47.151Z,15.65
2023-06-14T03:06:47.133Z,15.64
2023-06-14T03:07:47.139Z,15.62
2023-06-14T03:08:47.119Z,15.60
2023-06-14T03:09:47.213Z,15.57
2023-06-14T03:10:47.080Z,15.57
2023-06-14T03:11:47.110Z,15.59
2023-06-14T03:12:47.065Z,15.57
2023-06-14T03:13:47.042Z,15.57
2023-06-14T03:14:47.064Z,15.56
2023-06-14T03:15:47.015Z,15.53
2023-06-14T03:16:47.105Z,15.53
2023-06-14T03:17:47.228Z,15.53
2023-06-14T03:18:46.991Z,15.51
2023-06-14T03:19:47.123Z,15.50
2023-06-14T03:20:46.951Z,15.49
2023-06-14T03:21:46.943Z,15.47
2023-06-14T03:22:46.951Z,15.47
2023-06-14T03:23:46.954Z,15.46
2023-06-14T03:24:46.903Z,15.47
2023-06-14T03:25:46.892Z,15.46
2023-06-14T03:26:46.894Z,15.44
2023-06-14T03:27:46.867Z,15.44
2023-06-14T03:28:46.870Z,15.39
2023-06-14T03:29:46.878Z,15.39
2023-06-14T03:30:46.865Z,15.38
2023-06-14T03:31:46.809Z,15.34
2023-06-14T03:32:46.864Z,15.34
2023-06-14T03:33:46.808Z,15.32
2023-06-14T03:34:46.793Z,15.32
2023-06-14T03:35:46.815Z,15.31
2023-06-14T03:36:46.744Z,15.31
2023-06-14T03:37:46.753Z,15.28
2023-06-14T03:38:46.740Z,15.28
2023-06-14T03:39:46.716Z,15.28
2023-06-14T03:40:46.702Z,15.27
2023-06-14T03:41:46.684Z,15.27
2023-06-14T03:42:46.667Z,15.25
2023-06-14T03:43:46.662Z,15.25
2023-06-14T03:44:46.649Z,15.27
2023-06-14T03:45:46.627Z,15.28
2023-06-14T03:46:46.611Z,15.27
2023-06-14T03:47:46.662Z,15.29
2023-06-14T03:48:46.585Z,15.28
2023-06-14T03:49:46.588Z,15.28
2023-06-14T03:50:46.557Z,15.28
2023-06-14T03:51:46.548Z,15.28
2023-06-14T03:52:46.540Z,15.29
2023-06-14T03:54:03.662Z,15.29
2023-06-14T03:56:46.479Z,15.29
2023-06-14T03:57:46.476Z,15.31
2023-06-14T03:58:46.454Z,15.32
2023-06-14T03:59:46.432Z,15.32
2023-06-14T04:00:46.470Z,15.34
2023-06-14T04:01:46.412Z,15.34
2023-06-14T04:02:46.503Z,15.34
2023-06-14T04:03:46.425Z,15.34
2023-06-14T04:04:46.565Z,15.32
2023-06-14T04:05:46.366Z,15.29
2023-06-14T04:06:46.625Z,15.31
2023-06-14T04:07:46.347Z,15.31
2023-06-14T04:08:46.313Z,15.31
2023-06-14T04:09:46.310Z,15.31
2023-06-14T04:10:46.310Z,15.31
2023-06-14T04:11:46.281Z,15.29
2023-06-14T04:12:46.266Z,15.29
2023-06-14T04:13:46.252Z,15.28
2023-06-14T04:14:46.259Z,15.28
2023-06-14T04:15:46.229Z,15.28
2023-06-14T04:16:46.219Z,15.29
2023-06-14T04:17:46.245Z,15.29
2023-06-14T04:18:46.190Z,15.29
2023-06-14T04:19:46.181Z,15.29
2023-06-14T04:20:46.191Z,15.29
2023-06-14T04:21:46.144Z,15.29
2023-06-14T04:22:46.129Z,15.29
2023-06-14T04:23:46.188Z,15.29
2023-06-14T04:24:48.502Z,15.28
2023-06-14T04:25:46.291Z,15.28
2023-06-14T04:26:46.318Z,15.27
2023-06-14T04:27:46.075Z,15.27
2023-06-14T04:28:46.049Z,15.27
2023-06-14T04:29:46.078Z,15.27
2023-06-14T04:30:46.055Z,15.27
2023-06-14T04:31:46.274Z,15.25
2023-06-14T04:32:46.075Z,15.25
2023-06-14T04:33:46.180Z,15.25
2023-06-14T04:34:45.996Z,15.27
2023-06-14T04:35:45.967Z,15.27
2023-06-14T04:36:45.955Z,15.25
2023-06-14T04:37:45.938Z,15.27
2023-06-14T04:38:45.962Z,15.27
2023-06-14T04:39:46.169Z,15.27
2023-06-14T04:40:45.922Z,15.27
2023-06-14T04:41:45.917Z,15.28
2023-06-14T04:42:45.965Z,15.29
2023-06-14T04:43:45.867Z,15.29
2023-06-14T04:44:45.894Z,15.31
2023-06-14T04:45:45.901Z,15.28
2023-06-14T04:46:45.824Z,15.31
2023-06-14T04:47:45.863Z,15.31
2023-06-14T04:48:45.800Z,15.32
2023-06-14T04:49:45.813Z,15.31
2023-06-14T04:50:45.790Z,15.31
2023-06-14T04:51:45.750Z,15.31
2023-06-14T04:52:45.755Z,15.31
2023-06-14T04:53:45.730Z,15.34
2023-06-14T04:54:45.732Z,15.32
2023-06-14T04:55:45.734Z,15.36
2023-06-14T04:56:45.679Z,15.38
2023-06-14T04:57:45.686Z,15.39
2023-06-14T04:58:45.653Z,15.41
2023-06-14T04:59:45.652Z,15.43
2023-06-14T05:00:45.680Z,15.44
2023-06-14T05:01:45.687Z,15.44
2023-06-14T05:02:45.688Z,15.47
2023-06-14T05:03:45.622Z,15.49
2023-06-14T05:04:45.930Z,15.49
2023-06-14T05:05:45.636Z,15.47
2023-06-14T05:06:45.559Z,15.49
2023-06-14T05:07:45.552Z,15.50
2023-06-14T05:08:45.530Z,15.50
2023-06-14T05:09:45.686Z,15.50
2023-06-14T05:10:45.509Z,15.51
2023-06-14T05:11:45.502Z,15.51
2023-06-14T05:12:45.470Z,15.53
2023-06-14T05:13:45.458Z,15.53
2023-06-14T05:14:45.519Z,15.53
2023-06-14T05:15:45.475Z,15.57
2023-06-14T05:16:45.415Z,15.56
2023-06-14T05:17:45.429Z,15.56
2023-06-14T05:18:45.385Z,15.59
2023-06-14T05:19:45.408Z,15.60
2023-06-14T05:20:45.368Z,15.60
2023-06-14T05:21:45.350Z,15.62
2023-06-14T05:22:45.335Z,15.64
2023-06-14T05:23:45.430Z,15.64
2023-06-14T05:24:45.329Z,15.65
2023-06-14T05:25:45.327Z,15.65
2023-06-14T05:26:45.272Z,15.67
2023-06-14T05:27:45.273Z,15.68
2023-06-14T05:28:45.259Z,15.71
2023-06-14T05:29:45.239Z,15.74
2023-06-14T05:30:45.241Z,15.78
2023-06-14T05:31:45.332Z,15.82
2023-06-14T05:32:45.220Z,15.86
2023-06-14T05:33:45.210Z,15.92
2023-06-14T05:34:45.170Z,16.00
2023-06-14T05:35:45.170Z,16.12
2023-06-14T05:36:45.158Z,16.17
2023-06-14T05:37:45.136Z,16.25
2023-06-14T05:38:45.119Z,16.33
2023-06-14T05:39:45.126Z,16.39
2023-06-14T05:40:45.404Z,16.48
2023-06-14T05:41:45.077Z,16.53
2023-06-14T05:42:45.072Z,16.60
2023-06-14T05:43:45.077Z,16.67
2023-06-14T05:44:45.043Z,16.71
2023-06-14T05:45:45.059Z,16.79
2023-06-14T05:46:45.060Z,16.83
2023-06-14T05:47:45.048Z,16.89
2023-06-14T05:48:44.990Z,16.98
2023-06-14T05:49:44.983Z,17.03
2023-06-14T05:50:44.989Z,17.07
2023-06-14T05:51:44.942Z,17.12
2023-06-14T05:52:44.933Z,17.18
2023-06-14T05:53:44.925Z,17.22
2023-06-14T05:54:44.905Z,17.28
2023-06-14T05:55:44.906Z,17.33
2023-06-14T05:56:44.899Z,17.38
2023-06-14T05:57:44.871Z,17.43
2023-06-14T05:58:44.849Z,17.46
2023-06-14T05:59:44.831Z,17.52
2023-06-14T06:00:44.840Z,17.59
2023-06-14T06:01:44.871Z,17.64
2023-06-14T06:02:45.032Z,17.74
2023-06-14T06:03:44.838Z,17.78
2023-06-14T06:04:44.787Z,17.84
2023-06-14T06:05:44.786Z,17.90
2023-06-14T06:06:44.742Z,17.97
2023-06-14T06:07:44.728Z,18.02
2023-06-14T06:08:44.716Z,18.08
2023-06-14T06:09:44.721Z,18.10
2023-06-14T06:10:44.707Z,18.14
2023-06-14T06:11:53.155Z,18.20
2023-06-14T06:12:45.680Z,18.26
2023-06-14T06:13:44.667Z,18.33
2023-06-14T06:14:44.642Z,18.37
2023-06-14T06:15:44.646Z,18.44
2023-06-14T06:16:44.681Z,18.47
2023-06-14T06:17:55.453Z,18.50
2023-06-14T06:18:45.953Z,18.54
2023-06-14T06:19:44.574Z,18.54
2023-06-14T06:20:44.594Z,18.57
2023-06-14T06:21:44.571Z,18.63
2023-06-14T06:22:44.547Z,18.66
2023-06-14T06:23:44.552Z,18.69
2023-06-14T06:24:46.000Z,18.73
2023-06-14T06:25:44.514Z,18.81
2023-06-14T06:26:44.490Z,18.87
2023-06-14T06:27:44.487Z,18.92
2023-06-14T06:28:44.468Z,19.00
2023-06-14T06:29:44.444Z,19.08
2023-06-14T06:30:44.499Z,19.14
2023-06-14T06:31:44.469Z,19.22
2023-06-14T06:32:44.453Z,19.28
2023-06-14T06:33:44.400Z,19.31
2023-06-14T06:34:44.396Z,19.37
2023-06-14T06:35:44.410Z,19.41
2023-06-14T06:36:44.358Z,19.44
2023-06-14T06:37:44.347Z,19.47
2023-06-14T06:38:44.338Z,19.51
2023-06-14T06:39:44.322Z,19.58
2023-06-14T06:40:44.459Z,19.63
2023-06-14T06:41:44.305Z,19.66
2023-06-14T06:42:44.288Z,19.69
2023-06-14T06:43:44.261Z,19.73
2023-06-14T06:44:44.257Z,19.76
2023-06-14T06:45:45.103Z,19.80
2023-06-14T06:46:44.478Z,19.81
2023-06-14T06:47:44.260Z,19.91
2023-06-14T06:48:44.203Z,19.95
2023-06-14T06:49:44.190Z,19.94
2023-06-14T06:50:44.187Z,19.94
2023-06-14T06:51:44.172Z,19.96
2023-06-14T06:52:44.156Z,19.99
2023-06-14T06:53:48.190Z,20.03
2023-06-14T06:54:45.133Z,20.10
2023-06-14T06:55:44.119Z,20.18
2023-06-14T06:56:44.095Z,20.24
2023-06-14T06:57:44.080Z,20.24
2023-06-14T06:58:44.083Z,20.29
2023-06-14T06:59:44.058Z,20.33
2023-06-14T07:00:44.072Z,20.39
2023-06-14T07:01:44.100Z,20.47
2023-06-14T07:02:44.116Z,20.52
2023-06-14T07:03:44.038Z,20.59
2023-06-14T07:04:43.999Z,20.61
2023-06-14T07:05:44.023Z,20.58
2023-06-14T07:06:43.978Z,20.59
2023-06-14T07:07:43.956Z,20.59
2023-06-14T07:08:43.943Z,20.55
2023-06-14T07:09:44.002Z,20.54
2023-06-14T07:10:43.943Z,20.54
2023-06-14T07:11:43.911Z,20.59
2023-06-14T07:12:43.889Z,20.61
2023-06-14T07:13:43.898Z,20.62
2023-06-14T07:14:43.876Z,20.64
2023-06-14T07:15:43.890Z,20.59
2023-06-14T07:16:43.961Z,20.61
2023-06-14T07:17:43.886Z,20.66
2023-06-14T07:18:43.845Z,20.74
2023-06-14T07:19:43.803Z,20.82
2023-06-14T07:20:43.805Z,20.91
2023-06-14T07:21:43.770Z,20.99
2023-06-14T07:22:43.778Z,21.01
2023-06-14T07:23:43.802Z,20.99
2023-06-14T07:24:43.736Z,21.03
2023-06-14T07:25:43.743Z,21.04
2023-06-14T07:26:43.708Z,20.98
2023-06-14T07:27:43.710Z,20.98
2023-06-14T07:28:43.691Z,20.97
2023-06-14T07:29:43.719Z,21.01
2023-06-14T07:30:43.704Z,21.12
2023-06-14T07:31:43.647Z,21.17
2023-06-14T07:32:43.727Z,21.07
2023-06-14T07:33:43.695Z,20.97
2023-06-14T07:34:43.613Z,20.98
2023-06-14T07:35:43.611Z,21.07
2023-06-14T07:36:43.590Z,21.22
2023-06-14T07:37:43.571Z,21.31
2023-06-14T07:38:43.561Z,21.28
2023-06-14T07:39:43.556Z,21.27
2023-06-14T07:40:43.545Z,21.28
2023-06-14T07:41:43.527Z,21.32
2023-06-14T07:42:43.506Z,21.37
2023-06-14T07:43:43.504Z,21.37
2023-06-14T07:44:43.483Z,21.29
2023-06-14T07:45:53.991Z,21.29
2023-06-14T07:46:44.474Z,21.31
2023-06-14T07:47:43.607Z,21.32
2023-06-14T07:48:43.542Z,21.28
2023-06-14T07:49:43.427Z,21.31
2023-06-14T07:50:43.623Z,21.38
2023-06-14T07:51:43.400Z,21.35
2023-06-14T07:52:43.379Z,21.38
2023-06-14T07:53:43.379Z,21.44
2023-06-14T07:54:43.370Z,21.46
2023-06-14T07:55:53.037Z,21.56
2023-06-14T07:56:45.028Z,21.69
2023-06-14T07:57:43.321Z,21.72
2023-06-14T07:58:43.314Z,21.74
2023-06-14T07:59:43.292Z,21.77
2023-06-14T08:00:43.271Z,21.88
2023-06-14T08:01:43.275Z,21.94
2023-06-14T08:02:43.328Z,21.90
2023-06-14T08:03:43.363Z,21.86
2023-06-14T08:04:43.232Z,21.92
2023-06-14T08:05:43.213Z,22.05
2023-06-14T08:06:43.284Z,22.12
2023-06-14T08:07:43.186Z,22.18
2023-06-14T08:08:43.171Z,22.00
2023-06-14T08:09:43.161Z,21.77
2023-06-14T08:10:43.174Z,21.64
2023-06-14T08:11:43.160Z,21.54
2023-06-14T08:12:43.139Z,21.43
2023-06-14T08:13:43.123Z,21.32
2023-06-14T08:14:43.099Z,21.40
2023-06-14T08:15:43.177Z,21.50
2023-06-14T08:16:43.109Z,21.68
2023-06-14T08:17:43.099Z,21.83
2023-06-14T08:18:43.072Z,22.00
2023-06-14T08:19:43.048Z,22.00
2023-06-14T08:20:43.031Z,21.94
2023-06-14T08:21:43.018Z,21.91
2023-06-14T08:22:42.997Z,21.99
2023-06-14T08:23:43.001Z,22.10
2023-06-14T08:24:42.962Z,22.15
2023-06-14T08:25:42.971Z,22.18
2023-06-14T08:26:42.958Z,22.21
2023-06-14T08:27:42.960Z,22.18
2023-06-14T08:28:42.913Z,22.12
2023-06-14T08:29:42.916Z,22.18
2023-06-14T08:30:42.915Z,22.35
2023-06-14T08:31:42.977Z,22.45
2023-06-14T08:32:42.941Z,22.49
2023-06-14T08:33:43.092Z,22.51
2023-06-14T08:34:47.736Z,22.49
2023-06-14T08:35:43.845Z,22.57
2023-06-14T08:36:42.832Z,22.65
2023-06-14T08:37:42.814Z,22.68
2023-06-14T08:38:42.787Z,22.79
2023-06-14T08:39:42.777Z,22.85
2023-06-14T08:40:42.769Z,22.92
2023-06-14T08:41:42.787Z,23.01
2023-06-14T08:42:42.739Z,23.09
2023-06-14T08:43:42.720Z,23.20
2023-06-14T08:44:42.716Z,23.16
2023-06-14T08:45:42.689Z,23.16
2023-06-14T08:46:42.705Z,23.15
2023-06-14T08:47:42.759Z,23.00
2023-06-14T08:48:42.657Z,22.88
2023-06-14T08:49:42.693Z,22.72
2023-06-14T08:50:42.982Z,22.47
2023-06-14T08:51:42.652Z,22.45
2023-06-14T08:52:42.601Z,22.45
2023-06-14T08:53:42.758Z,22.49
2023-06-14T08:54:42.588Z,22.58
2023-06-14T08:55:43.872Z,22.72
2023-06-14T08:56:42.608Z,22.95
2023-06-14T08:57:42.540Z,23.09
2023-06-14T08:58:42.530Z,23.23
2023-06-14T08:59:42.524Z,23.39
2023-06-14T09:00:42.584Z,23.38
2023-06-14T09:01:49.277Z,23.25
2023-06-14T09:02:43.485Z,23.17
2023-06-14T09:03:42.480Z,23.22
2023-06-14T09:04:42.449Z,23.25
2023-06-14T09:05:42.461Z,23.28
2023-06-14T09:06:42.429Z,23.39
2023-06-14T09:07:42.420Z,23.33
2023-06-14T09:08:42.417Z,23.15
2023-06-14T09:09:47.595Z,23.10
2023-06-14T09:10:43.460Z,23.20
2023-06-14T09:11:42.367Z,23.32
2023-06-14T09:12:42.355Z,23.48
2023-06-14T09:13:42.334Z,23.46
2023-06-14T09:14:42.326Z,23.42
2023-06-14T09:15:42.349Z,23.53
2023-06-14T09:16:42.334Z,23.68
2023-06-14T09:17:42.365Z,23.80
2023-06-14T09:18:42.274Z,23.93
2023-06-14T09:19:42.258Z,24.02
2023-06-14T09:20:42.255Z,24.10
2023-06-14T09:21:42.248Z,24.08
2023-06-14T09:22:42.221Z,24.12
2023-06-14T09:23:42.334Z,24.21
2023-06-14T09:24:42.190Z,24.12
2023-06-14T09:25:42.440Z,24.09
2023-06-14T09:26:42.198Z,24.10
2023-06-14T09:27:42.150Z,24.10
2023-06-14T09:28:42.148Z,24.06
2023-06-14T09:29:42.153Z,23.98
2023-06-14T09:30:42.334Z,24.00
2023-06-14T09:31:42.221Z,24.08
2023-06-14T09:32:42.161Z,24.06
2023-06-14T09:33:42.091Z,24.13
2023-06-14T09:34:42.067Z,24.15
2023-06-14T09:35:42.223Z,24.22
2023-06-14T09:36:42.061Z,24.32
2023-06-14T09:37:42.033Z,24.47
2023-06-14T09:38:42.019Z,24.45
2023-06-14T09:39:42.001Z,24.42
2023-06-14T09:40:41.985Z,24.24
2023-06-14T09:41:42.003Z,24.15
2023-06-14T09:42:41.985Z,24.13
2023-06-14T09:43:41.969Z,24.13
2023-06-14T09:44:41.933Z,24.05
2023-06-14T09:45:42.041Z,24.06
2023-06-14T09:46:41.925Z,24.16
2023-06-14T09:47:49.898Z,24.39
2023-06-14T09:48:42.985Z,24.55
2023-06-14T09:49:41.869Z,24.64
2023-06-14T09:50:41.867Z,24.78
2023-06-14T09:51:41.861Z,24.84
2023-06-14T09:52:41.836Z,24.93
2023-06-14T09:53:41.837Z,24.96
2023-06-14T09:54:41.804Z,24.90
2023-06-14T09:55:41.815Z,24.83
2023-06-14T09:56:41.998Z,24.76
2023-06-14T09:57:41.773Z,24.61
2023-06-14T09:58:41.787Z,24.42
2023-06-14T09:59:41.744Z,24.47
2023-06-14T10:00:41.941Z,24.57
2023-06-14T10:01:41.754Z,24.65
2023-06-14T10:02:41.768Z,24.78
2023-06-14T10:03:57.485Z,24.98
2023-06-14T10:04:42.737Z,25.18
2023-06-14T10:05:41.667Z,25.32
2023-06-14T10:06:41.677Z,25.33
2023-06-14T10:07:41.645Z,25.33
2023-06-14T10:08:41.634Z,25.43
2023-06-14T10:09:41.620Z,25.51
2023-06-14T10:10:41.638Z,25.39
2023-06-14T10:11:41.622Z,25.43
2023-06-14T10:12:41.597Z,25.32
2023-06-14T10:13:41.566Z,25.20
2023-06-14T10:14:41.568Z,25.21
2023-06-14T10:15:41.563Z,25.32
2023-06-14T10:16:41.609Z,25.50
2023-06-14T10:17:41.545Z,25.62
2023-06-14T10:18:41.517Z,25.67
2023-06-14T10:19:41.509Z,25.73
2023-06-14T10:20:41.524Z,25.83
2023-06-14T10:21:41.470Z,26.02
2023-06-14T10:22:41.465Z,26.06
2023-06-14T10:23:41.482Z,25.99
2023-06-14T10:24:41.446Z,26.07
2023-06-14T10:25:41.425Z,25.87
2023-06-14T10:26:41.417Z,25.43
2023-06-14T10:27:41.432Z,25.13
2023-06-14T10:28:41.445Z,25.09
2023-06-14T10:29:41.382Z,25.17
2023-06-14T10:30:41.374Z,25.18
2023-06-14T10:31:41.363Z,25.09
2023-06-14T10:32:42.043Z,24.91
2023-06-14T10:33:43.802Z,24.90
2023-06-14T10:34:41.305Z,24.96
2023-06-14T10:35:41.340Z,25.00
2023-06-14T10:36:41.284Z,25.02
2023-06-14T10:37:41.265Z,24.93
2023-06-14T10:38:41.257Z,24.96
2023-06-14T10:39:41.243Z,25.09
2023-06-14T10:40:43.427Z,25.09
2023-06-14T10:41:41.226Z,25.27
2023-06-14T10:42:41.199Z,25.20
2023-06-14T10:43:41.189Z,25.09
2023-06-14T10:44:41.178Z,25.10
2023-06-14T10:45:41.173Z,25.21
2023-06-14T10:46:42.435Z,25.36
2023-06-14T10:47:41.190Z,25.62
2023-06-14T10:48:41.126Z,25.88
2023-06-14T10:49:41.116Z,26.10
2023-06-14T10:50:41.104Z,26.21
2023-06-14T10:51:41.108Z,26.12
2023-06-14T10:52:42.121Z,25.85
2023-06-14T10:53:41.063Z,25.80
2023-06-14T10:54:41.048Z,25.98
2023-06-14T10:55:41.035Z,26.17
2023-06-14T10:56:41.037Z,26.28
2023-06-14T10:57:50.390Z,26.17
2023-06-14T10:58:44.422Z,26.13
2023-06-14T10:59:40.989Z,26.20
2023-06-14T11:00:40.992Z,26.18
2023-06-14T11:01:40.973Z,25.92
2023-06-14T11:02:40.996Z,25.85
2023-06-14T11:03:40.977Z,25.99
2023-06-14T11:04:40.917Z,26.06
2023-06-14T11:05:40.932Z,26.05
2023-06-14T11:06:40.892Z,25.97
2023-06-14T11:07:40.884Z,25.98
2023-06-14T11:08:40.880Z,26.12
2023-06-14T11:09:40.852Z,25.90
2023-06-14T11:10:40.846Z,25.87
2023-06-14T11:11:40.858Z,25.90
2023-06-14T11:12:40.830Z,25.91
2023-06-14T11:13:40.794Z,25.92
2023-06-14T11:14:40.837Z,26.02
2023-06-14T11:15:40.827Z,26.07
2023-06-14T11:16:40.786Z,26.07
2023-06-14T11:17:40.778Z,26.09
2023-06-14T11:18:40.746Z,26.15
2023-06-14T11:19:40.730Z,26.15
2023-06-14T11:20:40.714Z,26.05
2023-06-14T11:21:40.718Z,26.05
2023-06-14T11:22:40.731Z,25.87
2023-06-14T11:23:40.685Z,25.73
2023-06-14T11:24:40.668Z,25.69
2023-06-14T11:25:40.648Z,25.76
2023-06-14T11:26:40.852Z,25.85
2023-06-14T11:27:40.614Z,25.88
2023-06-14T11:28:40.605Z,26.02
2023-06-14T11:29:40.593Z,26.10
2023-06-14T11:30:40.601Z,26.06
2023-06-14T11:31:40.635Z,26.13
2023-06-14T11:32:40.593Z,26.32
2023-06-14T11:33:40.538Z,26.40
2023-06-14T11:34:40.521Z,26.40
2023-06-14T11:35:40.522Z,26.57
2023-06-14T11:36:40.527Z,26.65
2023-06-14T11:37:40.492Z,26.52
2023-06-14T11:38:40.481Z,26.54
2023-06-14T11:39:40.464Z,26.45
2023-06-14T11:40:40.461Z,26.52
2023-06-14T11:41:40.478Z,26.39
2023-06-14T11:42:40.440Z,26.43
2023-06-14T11:43:40.417Z,26.51
2023-06-14T11:44:40.419Z,26.32
2023-06-14T11:45:40.396Z,26.09
2023-06-14T11:46:40.453Z,25.99
2023-06-14T11:47:40.424Z,26.12
2023-06-14T11:48:40.366Z,26.23
2023-06-14T11:49:40.353Z,26.33
2023-06-14T11:50:40.352Z,26.50
2023-06-14T11:51:40.328Z,26.57
2023-06-14T11:52:40.311Z,26.55
2023-06-14T11:53:40.319Z,26.62
2023-06-14T11:54:40.290Z,26.73
2023-06-14T11:55:40.325Z,26.89
2023-06-14T11:56:40.290Z,27.14
2023-06-14T11:57:40.238Z,27.28
2023-06-14T11:58:40.239Z,27.29
2023-06-14T11:59:40.223Z,27.29
2023-06-14T12:00:40.209Z,27.24
2023-06-14T12:01:40.660Z,27.27
2023-06-14T12:02:40.231Z,27.18
2023-06-14T12:03:40.176Z,26.92
2023-06-14T12:04:40.162Z,27.00
2023-06-14T12:05:40.159Z,27.10
2023-06-14T12:06:40.151Z,27.12
2023-06-14T12:07:40.130Z,27.10
2023-06-14T12:08:40.219Z,26.99
2023-06-14T12:09:40.084Z,26.91
2023-06-14T12:10:40.098Z,26.89
2023-06-14T12:11:40.076Z,26.88
2023-06-14T12:12:40.058Z,27.02
2023-06-14T12:13:40.065Z,27.18
2023-06-14T12:14:40.039Z,27.40
2023-06-14T12:15:40.046Z,27.59
2023-06-14T12:16:40.151Z,27.63
2023-06-14T12:17:40.015Z,27.79
2023-06-14T12:18:39.985Z,27.77
2023-06-14T12:19:39.967Z,27.59
2023-06-14T12:20:39.977Z,27.46
2023-06-14T12:21:39.955Z,27.29
2023-06-14T12:22:39.925Z,27.22
2023-06-14T12:23:39.921Z,27.27
2023-06-14T12:24:39.923Z,27.27
2023-06-14T12:25:39.887Z,27.13
2023-06-14T12:26:40.089Z,27.02
2023-06-14T12:27:39.861Z,26.88
2023-06-14T12:28:39.863Z,26.97
2023-06-14T12:29:39.831Z,27.06
2023-06-14T12:30:39.953Z,27.14
2023-06-14T12:31:39.830Z,27.44
2023-06-14T12:32:39.887Z,27.79
2023-06-14T12:33:39.899Z,28.09
2023-06-14T12:34:39.774Z,28.18
2023-06-14T12:35:39.796Z,28.18
2023-06-14T12:36:39.756Z,28.30
2023-06-14T12:37:39.735Z,28.18
2023-06-14T12:38:39.735Z,27.84
2023-06-14T12:39:39.721Z,27.70
2023-06-14T12:40:39.726Z,27.70
2023-06-14T12:41:39.713Z,27.90
2023-06-14T12:42:39.668Z,28.14
2023-06-14T12:43:39.670Z,28.36
2023-06-14T12:44:39.664Z,28.55
2023-06-14T12:45:39.671Z,28.64
2023-06-14T12:46:39.689Z,28.40
2023-06-14T12:47:39.621Z,28.30
2023-06-14T12:48:39.621Z,28.27
2023-06-14T12:49:39.598Z,28.22
2023-06-14T12:50:39.573Z,28.27
2023-06-14T12:51:39.607Z,28.27
2023-06-14T12:52:39.556Z,28.25
2023-06-14T12:53:39.546Z,28.21
2023-06-14T12:54:41.436Z,28.02